Time;durP1;ratioP1;P1;durP2;ratioP2;P2;SDS_P1;SDS_P2;PMS_P1;PMS_P2;Temp;Humidity;BMP_temperature;BMP_pressure;BME280_temperature;BME280_humidity;BME280_pressure;Samples;Min_cycle;Max_cycle;Signal;HPM_P1;HPM_P2
2022/12/07 00:02:07;;;;;;;9.13;6.27;;;;;;;3.28;100.00;152207.56;4994792;28;20432;-91
2022/12/07 00:04:54;;;;;;;10.30;7.30;;;;;;;3.29;100.00;152210.09;4994263;28;20452;-90
2022/12/07 00:07:40;;;;;;;8.20;6.87;;;;;;;3.35;100.00;152225.56;4992665;28;20444;-90
2022/12/07 00:10:25;;;;;;;9.13;6.80;;;;;;;3.35;100.00;152224.25;4983124;28;21265;-91
2022/12/07 00:13:10;;;;;;;10.57;7.47;;;;;;;3.29;100.00;152210.09;4978863;28;20489;-89
2022/12/07 00:15:56;;;;;;;9.00;7.07;;;;;;;3.29;100.00;152210.09;5007283;28;20448;-90
2022/12/07 00:18:41;;;;;;;10.30;7.80;;;;;;;3.26;100.00;152202.38;4999321;28;20526;-91
2022/12/07 00:21:30;;;;;;;8.97;7.00;;;;;;;3.28;100.00;152207.56;4994310;28;20923;-91
2022/12/07 00:24:15;;;;;;;12.40;7.50;;;;;;;3.31;100.00;152215.22;4993589;28;20413;-91
2022/12/07 00:27:00;;;;;;;8.60;6.87;;;;;;;3.33;100.00;152220.41;4978720;28;20449;-90
2022/12/07 00:29:46;;;;;;;10.80;7.70;;;;;;;3.32;100.00;152217.81;4990053;28;20441;-91
2022/12/07 00:32:31;;;;;;;12.00;8.17;;;;;;;3.29;100.00;152208.81;4992775;28;20409;-90
2022/12/07 00:35:17;;;;;;;8.83;6.93;;;;;;;3.27;100.00;152203.66;4990550;28;20960;-90
2022/12/07 00:38:03;;;;;;;10.93;7.83;;;;;;;3.25;100.00;152199.81;4989452;28;20483;-90
2022/12/07 00:40:55;;;;;;;9.33;8.10;;;;;;;3.27;100.00;152204.97;4992838;28;20565;-90
2022/12/07 00:43:41;;;;;;;9.90;8.00;;;;;;;3.27;100.00;152204.97;4999342;28;20428;-91
2022/12/07 00:46:26;;;;;;;10.53;7.90;;;;;;;3.29;100.00;152208.81;4986650;28;20924;-90
2022/12/07 00:49:12;;;;;;;10.67;8.17;;;;;;;3.30;100.00;152212.69;4985050;28;20786;-90
2022/12/07 00:51:57;;;;;;;11.90;7.40;;;;;;;3.33;100.00;152220.41;4992752;28;20501;-90
2022/12/07 00:54:44;;;;;;;9.60;7.03;;;;;;;3.30;100.00;152212.69;4989359;28;20555;-91
2022/12/07 00:57:30;;;;;;;9.57;8.17;;;;;;;3.29;100.00;152210.09;4991166;28;20413;-91
2022/12/07 01:00:16;;;;;;;12.30;8.67;;;;;;;3.29;100.00;152208.81;4991288;28;20572;-90
2022/12/07 01:03:01;;;;;;;14.03;9.23;;;;;;;3.28;100.00;152207.56;4991100;28;20486;-90
2022/12/07 01:05:51;;;;;;;9.90;8.07;;;;;;;3.23;100.00;152194.63;4993110;28;20457;-90
2022/12/07 01:08:36;;;;;;;12.20;8.67;;;;;;;3.25;100.00;152199.81;4993240;28;20429;-90
2022/12/07 01:11:25;;;;;;;10.27;8.50;;;;;;;3.21;100.00;152189.50;4990554;28;20496;-90
2022/12/07 01:14:10;;;;;;;9.27;7.77;;;;;;;3.20;100.00;152185.66;4986244;28;20486;-90
2022/12/07 01:16:55;;;;;;;11.13;8.20;;;;;;;3.16;100.00;152175.34;4986158;28;20424;-90
2022/12/07 01:19:41;;;;;;;10.60;8.47;;;;;;;3.14;100.00;152170.22;4991938;28;20457;-90
2022/12/07 01:22:26;;;;;;;11.97;8.33;;;;;;;3.15;100.00;152172.81;4989784;28;20449;-90
2022/12/07 01:25:12;;;;;;;11.67;8.20;;;;;;;3.15;100.00;152174.03;4990744;28;20607;-90
2022/12/07 01:27:59;;;;;;;11.47;7.70;;;;;;;3.14;100.00;152171.50;4996754;28;20468;-90
2022/12/07 01:30:44;;;;;;;13.00;8.80;;;;;;;3.13;100.00;152168.91;4993116;28;20450;-90
2022/12/07 01:33:31;;;;;;;12.03;8.40;;;;;;;3.11;100.00;152163.78;4983395;28;20484;-90
2022/12/07 01:36:18;;;;;;;11.83;8.67;;;;;;;3.08;100.00;152156.06;4991282;28;20460;-90
2022/12/07 01:39:06;;;;;;;13.10;8.50;;;;;;;3.08;100.00;152156.06;4990115;28;20588;-90
2022/12/07 01:41:51;;;;;;;11.17;7.80;;;;;;;3.11;100.00;152163.78;4984346;28;20535;-89
2022/12/07 01:45:10;;;;;;;11.27;8.03;;;;;;;3.09;100.00;152158.66;5000978;28;21023;-90
2022/12/07 01:47:58;;;;;;;10.80;8.53;;;;;;;3.06;100.00;152152.22;5009813;28;20519;-90
2022/12/07 01:50:44;;;;;;;11.57;7.63;;;;;;;3.02;100.00;152140.59;4995704;28;20445;-90
2022/12/07 01:53:31;;;;;;;14.03;8.93;;;;;;;3.04;100.00;152147.03;4995650;28;20456;-90
2022/12/07 01:56:18;;;;;;;10.67;7.60;;;;;;;3.03;100.00;152143.19;4994020;28;20436;-90
2022/12/07 01:59:04;;;;;;;11.80;8.73;;;;;;;3.04;100.00;152145.78;4994619;28;20523;-89
2022/12/07 02:01:49;;;;;;;10.10;8.37;;;;;;;3.01;100.00;152138.06;4986369;28;20452;-89
2022/12/07 02:04:36;;;;;;;9.90;7.47;;;;;;;3.03;100.00;152144.47;4995754;28;20871;-90
2022/12/07 02:07:22;;;;;;;11.80;8.77;;;;;;;3.02;100.00;152141.91;4994248;28;20630;-90
2022/12/07 02:10:15;;;;;;;10.43;8.20;;;;;;;2.99;100.00;152132.91;4995006;28;20592;-90
2022/12/07 02:13:03;;;;;;;9.97;7.60;;;;;;;2.97;100.00;152129.03;5009999;28;20487;-90
2022/12/07 02:16:06;;;;;;;12.67;9.20;;;;;;;2.97;100.00;152129.03;4993926;28;20453;-90
2022/12/07 02:19:01;;;;;;;10.60;8.40;;;;;;;2.99;100.00;152134.16;4982701;28;20444;-90
2022/12/07 02:21:51;;;;;;;10.00;7.33;;;;;;;3.00;100.00;152136.75;4999996;28;20527;-89
2022/12/07 02:24:49;;;;;;;11.17;8.33;;;;;;;2.99;100.00;152132.91;5014765;28;20493;-88
2022/12/07 02:27:42;;;;;;;11.07;7.93;;;;;;;3.00;100.00;152136.75;4998621;28;20932;-90
2022/12/07 02:30:32;;;;;;;9.80;7.40;;;;;;;2.99;100.00;152132.91;5000100;28;20526;-90
2022/12/07 02:33:19;;;;;;;11.13;7.97;;;;;;;2.98;100.00;152130.31;4997751;28;20472;-89
2022/12/07 02:36:07;;;;;;;10.00;7.70;;;;;;;2.98;100.00;152130.31;4994170;28;20432;-90
2022/12/07 02:38:56;;;;;;;11.73;8.33;;;;;;;2.98;100.00;152131.63;4994740;28;20410;-90
2022/12/07 02:41:45;;;;;;;12.33;8.63;;;;;;;2.97;100.00;152127.75;4993276;28;20600;-89
2022/12/07 02:44:32;;;;;;;13.53;8.50;;;;;;;2.95;100.00;152123.91;4985893;28;20996;-90
2022/12/07 02:47:20;;;;;;;10.83;7.60;;;;;;;2.96;100.00;152125.19;4998720;28;20587;-90
2022/12/07 02:50:08;;;;;;;10.73;7.67;;;;;;;2.99;100.00;152132.91;4995636;28;20409;-90
2022/12/07 02:52:53;;;;;;;10.47;8.20;;;;;;;3.00;100.00;152135.47;4992121;28;20451;-90
2022/12/07 02:55:41;;;;;;;9.93;7.80;;;;;;;2.97;100.00;152127.75;4994374;28;20508;-90
2022/12/07 02:58:34;;;;;;;10.67;7.90;;;;;;;3.00;100.00;152135.47;5007343;28;20531;-90
2022/12/07 03:01:28;;;;;;;9.83;7.33;;;;;;;2.97;100.00;152127.75;4992524;28;20436;-90
2022/12/07 03:04:25;;;;;;;11.23;8.03;;;;;;;2.96;100.00;152126.50;4994077;28;20473;-90
2022/12/07 03:07:19;;;;;;;10.07;7.10;;;;;;;2.98;100.00;152130.31;4993552;28;20459;-90
2022/12/07 03:10:09;;;;;;;9.03;7.23;;;;;;;2.98;100.00;152130.31;4998006;28;20449;-89
2022/12/07 03:13:00;;;;;;;9.50;7.33;;;;;;;2.94;100.00;152121.31;4960165;28;20462;-90
2022/12/07 03:15:48;;;;;;;9.07;7.40;;;;;;;2.91;100.00;152113.56;4973427;28;20456;-90
2022/12/07 03:18:38;;;;;;;11.67;8.50;;;;;;;2.91;100.00;152113.56;4983343;28;20448;-89
2022/12/07 03:21:27;;;;;;;8.00;6.20;;;;;;;2.96;100.00;152126.50;4973917;28;20453;-89
2022/12/07 03:24:15;;;;;;;12.67;7.13;;;;;;;2.99;100.00;152132.91;4970328;28;20531;-89
2022/12/07 03:27:04;;;;;;;8.43;6.50;;;;;;;2.94;100.00;152120.00;4969312;28;20525;-89
2022/12/07 03:29:52;;;;;;;10.23;7.53;;;;;;;2.96;100.00;152125.19;4974880;28;20453;-89
2022/12/07 03:32:41;;;;;;;10.73;7.43;;;;;;;2.96;100.00;152125.19;4970609;28;20492;-90
2022/12/07 03:35:28;;;;;;;10.17;7.57;;;;;;;2.93;100.00;152117.47;4973868;28;20438;-89
2022/12/07 03:38:19;;;;;;;9.40;7.90;;;;;;;2.92;100.00;152114.88;4965931;28;20832;-89
2022/12/07 03:41:07;;;;;;;10.00;8.67;;;;;;;2.90;100.00;152109.75;4973915;28;20430;-89
2022/12/07 03:43:54;;;;;;;11.40;8.13;;;;;;;2.90;100.00;152109.75;4981618;28;20469;-89
2022/12/07 03:46:45;;;;;;;12.30;8.60;;;;;;;2.90;100.00;152109.75;4966721;28;20512;-90
2022/12/07 03:49:33;;;;;;;10.43;8.33;;;;;;;2.91;100.00;152112.34;4974534;28;20426;-90
2022/12/07 03:52:23;;;;;;;12.10;8.23;;;;;;;2.90;100.00;152109.75;4974489;28;20446;-88
2022/12/07 03:55:12;;;;;;;11.00;7.80;;;;;;;2.90;100.00;152109.75;4973330;28;20484;-89
2022/12/07 03:58:01;;;;;;;11.30;7.73;;;;;;;2.90;100.00;152109.75;4973468;28;20562;-89
2022/12/07 04:00:47;;;;;;;11.77;7.53;;;;;;;2.91;100.00;152112.34;4974314;28;20949;-88
2022/12/07 04:03:33;;;;;;;12.13;8.23;;;;;;;2.88;100.00;152105.91;4966849;28;20938;-89
2022/12/07 04:06:18;;;;;;;11.43;7.80;;;;;;;2.86;100.00;152099.47;4973814;28;20485;-89
2022/12/07 04:09:04;;;;;;;13.93;7.83;;;;;;;2.84;100.00;152094.28;4974241;28;20425;-89
2022/12/07 04:11:50;;;;;;;12.63;8.60;;;;;;;2.84;100.00;152094.28;4963410;28;20465;-89
2022/12/07 04:14:36;;;;;;;10.30;7.60;;;;;;;2.81;100.00;152087.84;4992415;28;20464;-89
2022/12/07 04:17:21;;;;;;;10.93;7.93;;;;;;;2.82;100.00;152089.16;4993194;28;20527;-90
2022/12/07 04:20:08;;;;;;;12.10;7.77;;;;;;;2.82;100.00;152089.16;4992676;28;20432;-89
2022/12/07 04:22:54;;;;;;;16.10;8.17;;;;;;;2.79;100.00;152081.44;4990570;28;20504;-90
2022/12/07 04:25:39;;;;;;;10.17;7.63;;;;;;;2.76;100.00;152075.00;4999371;28;20556;-89
2022/12/07 04:28:26;;;;;;;11.33;7.97;;;;;;;2.77;100.00;152076.28;4994686;28;20468;-89
2022/12/07 04:31:12;;;;;;;13.30;9.10;;;;;;;2.75;100.00;152071.16;4996283;28;20457;-89
2022/12/07 04:33:57;;;;;;;8.93;7.40;;;;;;;2.74;100.00;152068.56;5024270;28;20480;-89
2022/12/07 04:36:43;;;;;;;9.30;7.30;;;;;;;2.72;100.00;152063.44;4975849;28;20782;-90
2022/12/07 04:39:30;;;;;;;9.57;7.37;;;;;;;2.69;100.00;152055.72;4980066;28;20452;-89
2022/12/07 04:42:15;;;;;;;10.20;7.17;;;;;;;2.64;100.00;152042.84;4986315;28;20786;-90
2022/12/07 04:45:02;;;;;;;8.73;7.13;;;;;;;2.61;100.00;152035.13;5000431;28;20457;-89
2022/12/07 04:47:47;;;;;;;11.30;7.53;;;;;;;2.57;100.00;152026.13;4988198;28;20452;-89
2022/12/07 04:50:33;;;;;;;9.27;6.83;;;;;;;2.56;100.00;152022.28;4988317;28;20989;-89
2022/12/07 04:53:18;;;;;;;7.57;6.33;;;;;;;2.58;100.00;152027.41;4988358;28;20460;-90
2022/12/07 04:56:04;;;;;;;10.07;6.40;;;;;;;2.59;100.00;152031.28;4991082;28;20449;-89
2022/12/07 04:58:49;;;;;;;6.27;5.40;;;;;;;2.56;100.00;152023.56;5006940;28;20412;-90
2022/12/07 05:01:36;;;;;;;6.23;5.03;;;;;;;2.56;100.00;152022.28;4990132;28;20461;-89
2022/12/07 05:04:21;;;;;;;6.83;6.00;;;;;;;2.54;100.00;152017.16;4971917;28;20633;-89
2022/12/07 05:07:07;;;;;;;7.03;5.70;;;;;;;2.56;100.00;152022.28;4985411;28;20497;-89
2022/12/07 05:09:52;;;;;;;8.43;5.10;;;;;;;2.57;100.00;152024.88;4971087;28;20461;-89
2022/12/07 05:12:37;;;;;;;7.10;5.10;;;;;;;2.55;100.00;152019.69;4970318;28;20480;-89
2022/12/07 05:15:22;;;;;;;5.57;4.60;;;;;;;2.55;100.00;152019.69;5007120;28;20476;-89
2022/12/07 05:18:09;;;;;;;6.67;4.77;;;;;;;2.56;100.00;152022.28;5003638;28;20480;-89
2022/12/07 05:20:54;;;;;;;5.57;4.33;;;;;;;2.57;100.00;152024.88;4991039;28;20916;-89
2022/12/07 05:23:40;;;;;;;5.53;4.33;;;;;;;2.54;100.00;152018.44;4980973;28;20532;-89
2022/12/07 05:26:25;;;;;;;5.93;4.80;;;;;;;2.54;100.00;152017.16;4991555;28;20468;-89
2022/12/07 05:29:12;;;;;;;7.40;5.37;;;;;;;2.50;100.00;152008.13;4992060;28;20471;-89
2022/12/07 05:31:57;;;;;;;7.47;4.93;;;;;;;2.46;100.00;151999.09;4995238;28;20464;-90
2022/12/07 05:34:44;;;;;;;5.87;4.57;;;;;;;2.43;100.00;151991.44;4993717;28;20519;-89
2022/12/07 05:37:29;;;;;;;4.80;4.00;;;;;;;2.43;99.57;151991.44;4989673;28;20456;-89
2022/12/07 05:40:16;;;;;;;6.00;5.03;;;;;;;2.49;98.94;152004.28;4992362;28;20444;-90
2022/12/07 05:43:01;;;;;;;7.00;5.10;;;;;;;2.49;99.58;152004.28;4993152;28;20524;-89
2022/12/07 05:45:46;;;;;;;7.60;5.50;;;;;;;2.48;100.00;152003.00;4987327;28;20437;-89
2022/12/07 05:48:32;;;;;;;7.57;5.87;;;;;;;2.36;100.00;151973.41;4995220;28;20687;-89
2022/12/07 05:51:19;;;;;;;10.97;6.67;;;;;;;2.34;100.00;151968.25;4990626;28;21091;-89
2022/12/07 05:54:04;;;;;;;10.63;6.47;;;;;;;2.28;100.00;151951.53;4978915;28;20480;-89
2022/12/07 05:56:50;;;;;;;7.97;6.30;;;;;;;2.28;100.00;151952.81;4987025;28;20456;-89
2022/12/07 05:59:34;;;;;;;8.07;5.90;;;;;;;2.31;100.00;151960.53;5005013;28;20476;-90
2022/12/07 06:02:20;;;;;;;8.70;6.27;;;;;;;2.20;100.00;151932.25;4994019;28;20444;-89
2022/12/07 06:05:06;;;;;;;7.57;6.20;;;;;;;2.21;100.00;151934.84;4983380;28;20476;-89
2022/12/07 06:07:53;;;;;;;9.47;6.73;;;;;;;2.28;100.00;151951.53;4995644;28;21081;-90
2022/12/07 06:10:38;;;;;;;9.43;7.23;;;;;;;2.21;100.00;151934.84;4995032;28;20461;-90
2022/12/07 06:13:22;;;;;;;9.03;6.63;;;;;;;2.15;100.00;151918.09;4995348;28;20583;-89
2022/12/07 06:16:08;;;;;;;11.23;6.50;;;;;;;2.13;100.00;151914.25;4996539;28;20615;-91
2022/12/07 06:18:53;;;;;;;7.23;5.40;;;;;;;2.09;100.00;151902.72;4980525;28;20996;-91
2022/12/07 06:21:38;;;;;;;9.27;7.10;;;;;;;2.07;100.00;151898.81;4990090;28;20804;-91
2022/12/07 06:24:26;;;;;;;9.70;7.27;;;;;;;2.10;100.00;151906.53;4992456;28;20581;-90
2022/12/07 06:27:11;;;;;;;9.43;7.23;;;;;;;2.12;100.00;151911.69;4992695;28;21270;-91
2022/12/07 06:29:56;;;;;;;9.70;6.90;;;;;;;2.16;100.00;151921.97;4991272;28;20453;-91
2022/12/07 06:32:42;;;;;;;9.07;6.57;;;;;;;2.13;100.00;151914.25;4990452;28;20448;-90
2022/12/07 06:35:27;;;;;;;8.80;5.80;;;;;;;2.10;100.00;151906.53;5008238;28;20464;-89
2022/12/07 06:38:13;;;;;;;8.43;6.67;;;;;;;2.09;100.00;151903.94;4984994;28;20441;-90
2022/12/07 06:40:59;;;;;;;7.27;5.90;;;;;;;2.11;100.00;151907.84;5006343;28;20452;-89
2022/12/07 06:43:45;;;;;;;7.83;6.10;;;;;;;2.11;100.00;151909.13;5008626;28;20449;-89
2022/12/07 06:46:30;;;;;;;6.80;6.10;;;;;;;2.11;100.00;151907.84;4991063;28;20460;-89
2022/12/07 06:49:16;;;;;;;5.57;5.00;;;;;;;2.11;100.00;151907.84;4991200;28;20441;-88
2022/12/07 06:52:01;;;;;;;7.20;5.53;;;;;;;2.15;100.00;151919.41;5003221;28;20468;-90
2022/12/07 06:54:47;;;;;;;6.57;5.17;;;;;;;2.16;100.00;151921.97;4992925;28;20472;-90
2022/12/07 06:57:34;;;;;;;7.40;5.60;;;;;;;2.19;100.00;151929.72;4991105;28;20465;-90
2022/12/07 07:00:20;;;;;;;6.73;5.50;;;;;;;2.17;100.00;151924.53;4988706;28;20453;-90
2022/12/07 07:03:05;;;;;;;9.27;6.03;;;;;;;2.13;100.00;151914.25;4984218;28;20460;-90
2022/12/07 07:05:50;;;;;;;7.43;5.33;;;;;;;2.12;100.00;151911.69;4988731;28;20460;-90
2022/12/07 07:08:36;;;;;;;8.00;5.90;;;;;;;2.12;100.00;151911.69;5004070;28;20772;-90
2022/12/07 07:11:21;;;;;;;9.07;6.27;;;;;;;2.11;100.00;151907.84;4978606;28;20891;-90
2022/12/07 07:14:08;;;;;;;7.77;6.40;;;;;;;2.09;100.00;151903.94;5006420;28;20522;-90
2022/12/07 07:16:53;;;;;;;6.43;5.40;;;;;;;2.13;100.00;151914.25;4993006;28;20549;-90
2022/12/07 07:19:38;;;;;;;9.50;7.07;;;;;;;2.14;100.00;151916.84;4984246;28;20469;-90
2022/12/07 07:22:23;;;;;;;7.73;6.17;;;;;;;2.14;100.00;151916.84;4988403;28;20453;-90
2022/12/07 07:25:09;;;;;;;13.00;7.70;;;;;;;2.11;100.00;151909.13;4991546;28;20433;-90
2022/12/07 07:27:54;;;;;;;24.03;14.07;;;;;;;2.14;100.00;151916.84;4990578;28;20445;-90
2022/12/07 07:30:41;;;;;;;16.47;11.53;;;;;;;2.19;100.00;151929.72;4986291;28;20491;-90
2022/12/07 07:33:26;;;;;;;14.27;11.07;;;;;;;2.18;100.00;151927.13;4970814;28;20449;-89
2022/12/07 07:36:12;;;;;;;12.50;9.90;;;;;;;2.21;100.00;151934.84;4988316;28;20508;-89
2022/12/07 07:38:57;;;;;;;12.40;9.33;;;;;;;2.20;100.00;151932.25;4988049;28;20432;-89
2022/12/07 07:41:42;;;;;;;11.43;8.57;;;;;;;2.21;100.00;151933.53;4993157;28;20527;-90
2022/12/07 07:44:32;;;;;;;9.57;7.13;;;;;;;2.23;100.00;151939.97;4975203;28;20441;-90
2022/12/07 07:47:18;;;;;;;8.20;6.43;;;;;;;2.25;100.00;151945.09;4988815;28;20444;-90
2022/12/07 07:50:05;;;;;;;7.40;6.20;;;;;;;2.27;100.00;151950.28;4985849;28;20452;-90
2022/12/07 07:52:50;;;;;;;7.70;5.73;;;;;;;2.29;100.00;151954.13;4984596;28;20476;-89
2022/12/07 07:55:35;;;;;;;8.80;6.53;;;;;;;2.28;100.00;151952.81;4990357;28;20461;-89
2022/12/07 07:58:21;;;;;;;8.60;7.10;;;;;;;2.32;100.00;151961.84;4977045;28;20473;-90
2022/12/07 08:01:07;;;;;;;10.40;6.93;;;;;;;2.33;100.00;151965.66;4986613;28;20460;-89
2022/12/07 08:03:54;;;;;;;10.60;7.30;;;;;;;2.36;100.00;151972.09;4992705;28;20533;-89
2022/12/07 08:06:41;;;;;;;8.10;6.17;;;;;;;2.39;100.00;151981.13;4993744;28;20438;-90
2022/12/07 08:09:27;;;;;;;9.73;7.43;;;;;;;2.39;100.00;151981.13;4987472;28;20445;-89
2022/12/07 08:12:23;;;;;;;7.83;6.13;;;;;;;2.35;100.00;151970.84;4991618;28;20883;-90
2022/12/07 08:15:09;;;;;;;10.60;6.90;;;;;;;2.37;100.00;151974.69;4979214;28;20938;-89
2022/12/07 08:17:54;;;;;;;10.33;6.40;;;;;;;2.40;100.00;151982.41;4988867;28;20535;-90
2022/12/07 08:20:42;;;;;;;8.60;7.10;;;;;;;2.45;100.00;151995.28;4974395;28;20445;-91
2022/12/07 08:23:29;;;;;;;9.93;7.30;;;;;;;2.50;100.00;152006.84;4981963;28;20490;-90
2022/12/07 08:26:16;;;;;;;9.63;7.40;;;;;;;2.53;100.00;152015.84;4976834;28;20963;-89
2022/12/07 08:29:02;;;;;;;10.70;7.87;;;;;;;2.52;100.00;152011.97;4990072;28;20440;-90
2022/12/07 08:31:48;;;;;;;10.00;7.30;;;;;;;2.53;100.00;152015.84;4992327;28;20457;-90
2022/12/07 08:34:33;;;;;;;10.70;6.73;;;;;;;2.61;100.00;152035.13;4972443;28;20438;-89
2022/12/07 08:37:19;;;;;;;11.03;7.30;;;;;;;2.63;100.00;152040.25;4995276;28;20539;-89
2022/12/07 08:40:07;;;;;;;9.60;6.80;;;;;;;2.65;100.00;152045.44;4977736;28;20556;-89
2022/12/07 08:42:52;;;;;;;11.40;7.60;;;;;;;2.65;100.00;152046.69;4992608;28;20441;-88
2022/12/07 08:45:41;;;;;;;10.37;7.73;;;;;;;2.70;100.00;152058.31;4971294;28;20504;-89
2022/12/07 08:48:26;;;;;;;9.90;7.43;;;;;;;2.74;100.00;152068.56;4987871;28;20571;-89
2022/12/07 08:51:12;;;;;;;9.53;7.33;;;;;;;2.77;100.00;152076.28;4991204;28;20448;-89
2022/12/07 08:54:00;;;;;;;9.53;6.60;;;;;;;2.82;100.00;152089.16;4978890;28;20444;-90
2022/12/07 08:56:47;;;;;;;11.30;8.47;;;;;;;2.88;100.00;152105.91;4999877;28;20469;-90
2022/12/07 08:59:34;;;;;;;10.40;7.03;;;;;;;2.90;100.00;152111.03;5012187;28;20449;-89
2022/12/07 09:02:20;;;;;;;10.33;7.70;;;;;;;2.94;100.00;152120.00;4991594;28;20471;-90
2022/12/07 09:05:06;;;;;;;8.80;6.60;;;;;;;2.98;100.00;152131.63;4991654;28;20981;-89
2022/12/07 09:07:52;;;;;;;12.30;7.40;;;;;;;3.00;100.00;152135.47;5007269;28;20456;-90
2022/12/07 09:10:39;;;;;;;10.40;7.50;;;;;;;3.04;100.00;152145.78;5008049;28;20507;-90
2022/12/07 09:13:25;;;;;;;12.87;8.10;;;;;;;3.12;100.00;152165.06;4990038;28;20460;-90
2022/12/07 09:16:10;;;;;;;10.00;7.37;;;;;;;3.15;100.00;152172.81;4991842;28;20535;-89
2022/12/07 09:18:55;;;;;;;8.70;6.90;;;;;;;3.17;100.00;152179.22;4975437;28;21002;-90
2022/12/07 09:21:41;;;;;;;10.03;7.87;;;;;;;3.17;100.00;152179.22;4983935;28;20468;-90
2022/12/07 09:24:26;;;;;;;9.00;6.60;;;;;;;3.22;100.00;152190.81;4989949;28;20531;-89
2022/12/07 09:27:13;;;;;;;9.70;7.80;;;;;;;3.26;100.00;152202.38;4982892;28;20983;-90
2022/12/07 09:29:58;;;;;;;9.23;7.50;;;;;;;3.33;100.00;152220.41;4991357;28;20461;-89
2022/12/07 09:32:43;;;;;;;12.03;7.37;;;;;;;3.39;100.00;152234.59;4981867;28;20457;-89
2022/12/07 09:35:29;;;;;;;10.00;7.00;;;;;;;3.42;100.00;152242.25;4991338;28;20525;-90
2022/12/07 09:38:15;;;;;;;8.70;7.03;;;;;;;3.45;100.00;152251.28;4990308;28;20507;-90
2022/12/07 09:41:05;;;;;;;6.83;5.57;;;;;;;3.50;100.00;152264.16;4991624;28;20855;-89
2022/12/07 09:43:53;;;;;;;8.87;6.47;;;;;;;3.55;100.00;152277.03;4988461;28;20477;-89
2022/12/07 09:46:41;;;;;;;8.43;6.77;;;;;;;3.58;100.00;152284.75;4985707;28;20453;-90
2022/12/07 09:49:29;;;;;;;11.57;6.90;;;;;;;3.65;100.00;152302.75;4985979;28;20504;-90
2022/12/07 09:52:20;;;;;;;7.30;6.03;;;;;;;3.71;100.00;152316.91;5005186;28;20443;-90
2022/12/07 09:55:11;;;;;;;7.70;5.30;;;;;;;3.80;100.00;152338.81;4989453;28;20461;-90
2022/12/07 09:57:56;;;;;;;6.63;4.50;;;;;;;3.82;100.00;152343.97;4983394;28;21038;-89
2022/12/07 10:00:43;;;;;;;7.60;5.83;;;;;;;3.87;100.00;152356.81;4982368;28;20562;-90
2022/12/07 10:03:29;;;;;;;9.87;5.07;;;;;;;3.86;100.00;152355.56;4985599;28;20441;-89
2022/12/07 10:06:15;;;;;;;6.40;4.57;;;;;;;3.87;98.42;152356.81;4989191;28;20672;-90
2022/12/07 10:09:00;;;;;;;7.33;4.60;;;;;;;3.97;100.00;152382.63;4987742;28;20441;-90
2022/12/07 10:12:06;;;;;;;6.13;4.40;;;;;;;4.03;100.00;152399.34;4998169;28;20499;-90
2022/12/07 10:14:56;;;;;;;9.00;4.70;;;;;;;4.08;100.00;152410.91;4991249;28;20457;-90
2022/12/07 10:17:50;;;;;;;7.47;5.20;;;;;;;4.13;100.00;152423.84;5001559;28;20471;-90
2022/12/07 10:20:36;;;;;;;6.00;4.37;;;;;;;4.19;100.00;152440.56;5000849;28;20457;-90
2022/12/07 10:23:21;;;;;;;4.63;3.93;;;;;;;4.19;98.87;152439.25;4993959;28;20440;-90
2022/12/07 10:26:22;;;;;;;6.40;4.07;;;;;;;4.16;97.11;152431.53;4990590;28;20437;-90
2022/12/07 10:29:16;;;;;;;5.67;4.60;;;;;;;4.21;97.71;152445.69;4989428;28;21010;-90
2022/12/07 10:32:03;;;;;;;5.37;4.40;;;;;;;4.21;97.27;152444.41;4988813;28;20440;-90
2022/12/07 10:34:50;;;;;;;5.40;4.23;;;;;;;4.18;97.64;152436.72;4974557;28;20426;-89
2022/12/07 10:37:41;;;;;;;8.03;4.63;;;;;;;4.21;96.67;152444.41;4976914;28;20499;-90
2022/12/07 10:40:33;;;;;;;5.73;4.20;;;;;;;4.23;97.08;152449.59;4994187;28;20453;-90
2022/12/07 10:43:20;;;;;;;7.57;5.37;;;;;;;4.26;98.05;152457.31;4977326;28;20565;-90
2022/12/07 10:46:25;;;;;;;6.60;4.70;;;;;;;4.27;96.58;152461.16;4988583;28;20883;-90
2022/12/07 10:49:36;;;;;;;4.97;3.67;;;;;;;4.30;96.13;152467.59;4999017;28;20436;-90
2022/12/07 10:52:40;;;;;;;6.00;3.83;;;;;;;4.31;96.14;152470.19;4980337;28;20444;-90
2022/12/07 10:55:28;;;;;;;4.27;3.53;;;;;;;4.30;95.88;152467.59;4985899;28;20991;-90
2022/12/07 10:58:26;;;;;;;4.00;3.50;;;;;;;4.31;97.10;152471.44;4976636;28;20458;-89
2022/12/07 11:01:14;;;;;;;4.70;3.93;;;;;;;4.30;96.72;152468.91;5003394;28;20445;-90
2022/12/07 11:04:30;;;;;;;6.27;4.50;;;;;;;4.34;97.34;152477.94;4992004;28;20460;-90
2022/12/07 11:07:22;;;;;;;5.67;3.50;;;;;;;4.35;100.00;152480.47;4995120;28;20789;-91
2022/12/07 11:10:14;;;;;;;4.70;3.40;;;;;;;4.30;98.68;152467.59;4984780;28;20445;-90
2022/12/07 11:13:11;;;;;;;5.03;3.53;;;;;;;4.30;99.43;152467.59;4995947;28;20484;-91
2022/12/07 11:16:05;;;;;;;4.47;3.50;;;;;;;4.24;100.00;152452.13;4990807;28;20468;-90
2022/12/07 11:19:07;;;;;;;4.57;3.57;;;;;;;4.22;98.94;152447.00;4986218;28;20442;-90
2022/12/07 11:21:57;;;;;;;4.93;3.57;;;;;;;4.24;100.00;152453.44;4991801;28;20456;-90
2022/12/07 11:24:56;;;;;;;9.43;3.73;;;;;;;4.25;100.00;152456.03;4979578;28;20401;-90
2022/12/07 11:27:48;;;;;;;6.07;3.90;;;;;;;4.30;97.78;152467.59;4981433;28;20453;-90
2022/12/07 11:30:36;;;;;;;7.50;4.30;;;;;;;4.28;97.57;152462.47;4987912;28;20488;-90
2022/12/07 11:33:27;;;;;;;6.00;4.67;;;;;;;4.31;98.58;152471.44;4989245;28;20867;-90
2022/12/07 11:36:31;;;;;;;5.70;4.43;;;;;;;4.30;96.94;152468.91;4988985;28;20468;-90
2022/12/07 11:39:26;;;;;;;5.63;4.10;;;;;;;4.31;98.25;152470.19;4979851;28;20456;-89
2022/12/07 11:42:15;;;;;;;5.80;4.07;;;;;;;4.30;98.55;152467.59;4974277;28;20941;-89
2022/12/07 11:45:05;;;;;;;6.07;4.57;;;;;;;4.31;98.78;152471.44;4984635;28;20532;-89
2022/12/07 11:47:54;;;;;;;6.43;3.80;;;;;;;4.30;96.64;152468.91;4992795;28;20580;-89
2022/12/07 11:50:41;;;;;;;4.43;3.70;;;;;;;4.35;99.93;152480.47;4991943;28;20467;-89
2022/12/07 11:53:29;;;;;;;5.50;4.00;;;;;;;4.38;99.18;152488.22;4972180;28;20524;-89
2022/12/07 11:56:17;;;;;;;5.10;3.70;;;;;;;4.39;98.62;152490.81;4992119;28;20604;-89
2022/12/07 11:59:05;;;;;;;4.10;3.20;;;;;;;4.37;96.69;152484.38;4990927;28;20592;-89
2022/12/07 12:01:54;;;;;;;8.47;3.87;;;;;;;4.37;96.74;152485.63;4980941;28;20428;-89
2022/12/07 12:04:48;;;;;;;6.50;4.10;;;;;;;4.40;98.97;152493.34;4977503;28;20931;-89
2022/12/07 12:07:34;;;;;;;5.20;4.07;;;;;;;4.37;96.60;152485.63;4991567;28;20982;-90
2022/12/07 12:10:23;;;;;;;4.20;3.20;;;;;;;4.37;96.96;152485.63;5000221;28;20471;-89
2022/12/07 12:13:19;;;;;;;5.27;3.87;;;;;;;4.37;96.19;152485.63;4972993;28;20825;-89
2022/12/07 12:16:40;;;;;;;5.60;3.70;;;;;;;4.38;99.08;152488.22;4994606;28;20511;-89
2022/12/07 12:19:34;;;;;;;6.07;3.90;;;;;;;4.38;97.58;152488.22;4985531;28;20762;-89
2022/12/07 12:22:21;;;;;;;5.37;4.03;;;;;;;4.38;100.00;152488.22;4995809;28;20448;-89
2022/12/07 12:25:08;;;;;;;4.40;3.10;;;;;;;4.32;99.60;152474.03;5004438;28;20515;-89
2022/12/07 12:27:56;;;;;;;4.10;3.20;;;;;;;4.30;96.76;152468.91;4991341;28;20982;-89
2022/12/07 12:30:41;;;;;;;5.23;3.40;;;;;;;4.27;97.71;152459.88;4993004;28;20565;-89
2022/12/07 12:33:29;;;;;;;5.10;4.30;;;;;;;4.29;99.37;152466.31;4984958;28;20897;-90
2022/12/07 12:36:22;;;;;;;5.73;4.57;;;;;;;4.22;99.87;152448.28;4990611;28;20995;-89
2022/12/07 12:39:14;;;;;;;5.53;3.83;;;;;;;4.21;100.00;152445.69;4989317;28;20444;-89
2022/12/07 12:42:06;;;;;;;7.57;4.60;;;;;;;4.18;100.00;152436.72;4989864;28;20456;-89
2022/12/07 12:45:20;;;;;;;6.43;4.90;;;;;;;4.20;100.00;152441.84;4982092;28;20481;-89
2022/12/07 12:48:08;;;;;;;6.60;5.30;;;;;;;4.17;100.00;152434.13;4999070;28;20455;-89
2022/12/07 12:51:40;;;;;;;5.67;4.47;;;;;;;4.16;100.00;152431.53;4995156;28;20471;-89
2022/12/07 12:54:27;;;;;;;8.30;5.27;;;;;;;4.19;100.00;152439.25;4980234;28;20504;-89
2022/12/07 12:57:17;;;;;;;7.30;5.60;;;;;;;4.18;100.00;152437.97;5008045;28;20815;-89
2022/12/07 13:00:15;;;;;;;7.60;5.80;;;;;;;4.12;100.00;152421.25;4995294;28;20456;-89
2022/12/07 13:03:01;;;;;;;6.20;5.30;;;;;;;4.14;100.00;152426.38;5000169;28;20460;-89